Time;durP1;ratioP1;P1;durP2;ratioP2;P2;SDS_P1;SDS_P2;PMS_P1;PMS_P2;Temp;Humidity;BMP_temperature;BMP_pressure;BME280_temperature;BME280_humidity;BME280_pressure;Samples;Min_cycle;Max_cycle;Signal;HPM_P1;HPM_P2
2021/12/14 00:01:54;;;;;;;;;;;;;;;3.30;89.23;100170.16;5033493;28;19921;-82
2021/12/14 00:04:27;;;;;;;;;;;;;;;3.40;89.03;100163.44;5036501;28;19940;-82
2021/12/14 00:06:53;;;;;;;;;;;;;;;3.28;89.58;100169.25;5026330;28;19927;-82
2021/12/14 00:09:27;;;;;;;;;;;;;;;3.34;88.79;100166.78;5024440;28;20582;-84
2021/12/14 00:12:29;;;;;;;;;;;;;;;3.28;89.04;100171.00;5035160;28;20333;-83
2021/12/14 00:17:13;;;;;;;;;;;;;;;3.19;89.63;100177.75;5027746;28;20011;-82
2021/12/14 00:19:38;;;;;;;;;;;;;;;3.16;89.54;100177.69;5031313;28;19916;-82
2021/12/14 00:24:49;;;;;;;;;;;;;;;3.17;89.50;100175.97;5033448;28;19993;-83
2021/12/14 00:27:18;;;;;;;;;;;;;;;3.26;89.06;100188.31;5032346;28;19960;-83
2021/12/14 00:29:45;;;;;;;;;;;;;;;3.16;88.51;100190.72;5032448;28;19923;-83
2021/12/14 00:32:14;;;;;;;;;;;;;;;3.17;89.53;100186.41;5032401;28;20407;-84
2021/12/14 00:34:42;;;;;;;;;;;;;;;3.17;89.97;100192.47;5032893;28;19917;-82
2021/12/14 00:37:09;;;;;;;;;;;;;;;3.29;89.45;100184.06;5033114;28;20394;-82
2021/12/14 00:39:35;;;;;;;;;;;;;;;3.27;89.37;100185.75;5032499;28;20000;-85
2021/12/14 00:42:00;;;;;;;;;;;;;;;3.23;89.21;100186.53;5033261;28;20003;-83
2021/12/14 00:44:26;;;;;;;;;;;;;;;3.39;88.31;100196.44;5050658;28;20012;-83
2021/12/14 00:46:52;;;;;;;;;;;;;;;3.44;88.33;100196.53;5047182;28;19916;-84
2021/12/14 00:49:17;;;;;;;;;;;;;;;3.43;87.85;100183.47;5045007;28;19920;-86
2021/12/14 00:51:43;;;;;;;;;;;;;;;3.46;87.67;100197.47;5037132;28;19928;-85
2021/12/14 00:54:12;;;;;;;;;;;;;;;3.32;87.93;100197.19;5039863;28;20388;-85
2021/12/14 00:56:38;;;;;;;;;;;;;;;3.01;88.83;100201.69;5025743;28;19925;-82
2021/12/14 00:59:04;;;;;;;;;;;;;;;2.99;89.43;100198.13;5029617;28;19917;-82
2021/12/14 01:01:32;;;;;;;;;;;;;;;3.04;89.47;100203.47;5033720;28;19920;-83
2021/12/14 01:03:59;;;;;;;;;;;;;;;3.12;89.15;100211.47;5049632;28;20398;-83
2021/12/14 01:06:26;;;;;;;;;;;;;;;3.09;89.15;100201.88;5033444;28;20594;-86
2021/12/14 01:08:53;;;;;;;;;;;;;;;3.18;88.63;100209.91;5033395;28;19937;-85
2021/12/14 01:11:21;;;;;;;;;;;;;;;2.85;88.86;100203.03;5031500;28;19932;-82
2021/12/14 01:13:55;;;;;;;;;;;;;;;2.95;89.48;100205.84;5052593;28;19917;-82
2021/12/14 01:16:37;;;;;;;;;;;;;;;2.94;89.33;100207.59;5035220;28;19927;-82
2021/12/14 01:19:25;;;;;;;;;;;;;;;3.00;89.23;100214.69;5051432;28;19913;-82
2021/12/14 01:22:24;;;;;;;;;;;;;;;2.78;90.58;100211.56;5049189;28;20300;-82
2021/12/14 01:25:01;;;;;;;;;;;;;;;2.89;89.93;100213.53;5051468;28;20011;-83
2021/12/14 01:27:32;;;;;;;;;;;;;;;2.96;89.48;100207.63;5040640;28;19995;-80
2021/12/14 01:30:01;;;;;;;;;;;;;;;2.84;90.09;100205.59;5029797;28;19925;-81
2021/12/14 01:32:29;;;;;;;;;;;;;;;3.07;88.59;100206.13;5039575;28;19928;-81
2021/12/14 01:34:55;;;;;;;;;;;;;;;3.08;88.53;100207.03;5040251;28;19916;-81
2021/12/14 01:37:24;;;;;;;;;;;;;;;2.96;88.80;100203.28;5039763;28;19920;-82
2021/12/14 01:42:25;;;;;;;;;;;;;;;2.97;89.27;100202.44;5030132;28;19920;-84
2021/12/14 01:44:53;;;;;;;;;;;;;;;2.88;89.29;100201.34;5028497;28;19947;-82
2021/12/14 01:47:24;;;;;;;;;;;;;;;2.69;89.17;100204.38;5029375;28;19917;-83
2021/12/14 01:49:50;;;;;;;;;;;;;;;2.63;90.77;100204.22;5028755;28;19921;-82
2021/12/14 01:52:20;;;;;;;;;;;;;;;2.61;90.84;100207.63;5030089;28;19917;-82
2021/12/14 01:54:48;;;;;;;;;;;;;;;2.50;90.43;100209.94;5037709;28;19974;-81
2021/12/14 01:57:16;;;;;;;;;;;;;;;2.54;91.01;100213.53;5039886;28;20002;-83
2021/12/14 01:59:42;;;;;;;;;;;;;;;2.41;91.33;100212.31;5029441;28;19924;-83
2021/12/14 02:02:29;;;;;;;;;;;;;;;2.48;91.05;100206.44;5035320;28;19996;-83
2021/12/14 02:04:55;;;;;;;;;;;;;;;2.59;90.41;100207.59;5049472;28;19912;-84
2021/12/14 02:07:22;;;;;;;;;;;;;;;2.55;90.70;100216.19;5039165;28;19928;-86
2021/12/14 02:09:55;;;;;;;;;;;;;;;2.40;91.29;100206.25;5028551;28;20960;-84
2021/12/14 02:12:21;;;;;;;;;;;;;;;2.38;91.39;100209.63;5037372;28;19916;-84
2021/12/14 02:14:47;;;;;;;;;;;;;;;2.44;90.96;100210.69;5036680;28;20444;-85
2021/12/14 02:17:15;;;;;;;;;;;;;;;2.38;91.32;100214.84;5037508;28;19952;-84
2021/12/14 02:19:41;;;;;;;;;;;;;;;2.38;91.42;100205.31;5049085;28;19958;-85
2021/12/14 02:22:07;;;;;;;;;;;;;;;2.41;91.74;100209.72;5042217;28;19917;-84
2021/12/14 02:24:33;;;;;;;;;;;;;;;2.42;91.11;100208.88;5028999;28;19978;-86
2021/12/14 02:26:59;;;;;;;;;;;;;;;2.50;90.44;100209.94;5034439;28;19920;-84
2021/12/14 02:29:27;;;;;;;;;;;;;;;2.64;89.75;100212.91;5049089;28;20432;-84
2021/12/14 02:31:59;;;;;;;;;;;;;;;2.49;90.09;100209.06;5046182;28;19919;-84
2021/12/14 02:34:24;;;;;;;;;;;;;;;2.60;89.99;100211.09;5047774;28;19921;-84
2021/12/14 02:36:50;;;;;;;;;;;;;;;2.24;90.64;100215.38;5044059;28;20417;-84
2021/12/14 02:40:03;;;;;;;;;;;;;;;2.22;91.76;100219.63;5028756;28;20532;-84
2021/12/14 02:42:22;;;;;;;;;;;;;;;2.26;91.05;100218.88;5029884;28;19921;-86
2021/12/14 02:44:51;;;;;;;;;;;;;;;2.43;91.30;100221.94;5028754;28;19917;-85
2021/12/14 02:47:17;;;;;;;;;;;;;;;2.43;90.44;100218.47;5036611;28;20128;-84
2021/12/14 02:49:43;;;;;;;;;;;;;;;2.45;89.91;100216.78;5040770;28;19921;-84
2021/12/14 02:52:11;;;;;;;;;;;;;;;2.45;89.74;100219.38;5028923;28;19979;-84
2021/12/14 02:54:38;;;;;;;;;;;;;;;2.43;90.29;100223.69;5027415;28;19917;-82
2021/12/14 02:57:15;;;;;;;;;;;;;;;2.30;90.41;100219.84;5028139;28;19921;-85
2021/12/14 02:59:42;;;;;;;;;;;;;;;2.40;90.91;100221.00;5027477;28;19921;-84
2021/12/14 03:02:11;;;;;;;;;;;;;;;2.33;90.41;100218.22;5027700;28;19971;-84
2021/12/14 03:04:39;;;;;;;;;;;;;;;2.36;90.54;100219.13;5027946;28;20776;-86
2021/12/14 03:07:04;;;;;;;;;;;;;;;2.25;91.04;100224.06;5028453;28;19916;-82
2021/12/14 03:09:54;;;;;;;;;;;;;;;2.28;91.62;100219.81;5028237;28;19917;-84
2021/12/14 03:12:22;;;;;;;;;;;;;;;2.33;91.35;100219.94;5030120;28;19921;-83
2021/12/14 03:14:50;;;;;;;;;;;;;;;2.25;91.87;100226.66;5027900;28;19963;-86
2021/12/14 03:17:15;;;;;;;;;;;;;;;2.42;91.07;100227.09;5027417;28;19999;-83
2021/12/14 03:19:42;;;;;;;;;;;;;;;2.41;90.61;100226.25;5027196;28;20379;-84
2021/12/14 03:22:19;;;;;;;;;;;;;;;2.23;91.57;100228.34;5033633;28;19916;-84
2021/12/14 03:24:44;;;;;;;;;;;;;;;2.51;90.92;100232.56;5046781;28;19912;-84
2021/12/14 03:27:09;;;;;;;;;;;;;;;2.50;90.21;100225.56;5046938;28;20007;-85
2021/12/14 03:29:35;;;;;;;;;;;;;;;2.44;90.28;100228.03;5035248;28;19917;-85
2021/12/14 03:32:00;;;;;;;;;;;;;;;2.49;89.66;100231.66;5032205;28;19913;-84
2021/12/14 03:34:28;;;;;;;;;;;;;;;2.50;89.96;100225.56;5046885;28;20131;-81
2021/12/14 03:36:59;;;;;;;;;;;;;;;2.38;89.61;100231.38;5046721;28;19913;-81
2021/12/14 03:39:24;;;;;;;;;;;;;;;2.18;91.02;100237.72;5027151;28;19917;-83
2021/12/14 03:41:52;;;;;;;;;;;;;;;2.33;89.91;100240.75;5027145;28;19974;-82
2021/12/14 03:44:22;;;;;;;;;;;;;;;2.19;91.10;100247.31;5058866;28;20309;-84
2021/12/14 03:46:52;;;;;;;;;;;;;;;1.99;91.41;100249.34;5027461;28;19924;-85
2021/12/14 03:49:19;;;;;;;;;;;;;;;2.01;92.08;100242.47;5028084;28;19963;-85
2021/12/14 03:51:44;;;;;;;;;;;;;;;1.95;92.26;100243.19;5044038;28;19916;-85
2021/12/14 03:54:10;;;;;;;;;;;;;;;1.99;91.97;100246.75;5026269;28;19971;-84
2021/12/14 03:56:37;;;;;;;;;;;;;;;2.05;91.19;100250.41;5027705;28;19975;-88
2021/12/14 03:59:02;;;;;;;;;;;;;;;1.83;91.27;100246.31;5035265;28;19924;-85
2021/12/14 04:01:34;;;;;;;;;;;;;;;1.82;92.24;100257.53;5038344;28;19975;-84
2021/12/14 04:04:22;;;;;;;;;;;;;;;1.96;90.68;100257.94;5047400;28;19923;-83
2021/12/14 04:06:52;;;;;;;;;;;;;;;1.90;91.14;100258.66;5049281;28;19923;-85
2021/12/14 04:09:18;;;;;;;;;;;;;;;1.81;90.92;100263.59;5030978;28;20004;-83
2021/12/14 04:11:44;;;;;;;;;;;;;;;1.75;91.35;100266.03;5028501;28;19924;-84
2021/12/14 04:14:10;;;;;;;;;;;;;;;1.78;91.31;100271.31;5043543;28;19917;-85
2021/12/14 04:16:37;;;;;;;;;;;;;;;1.55;91.84;100268.03;5029273;28;20135;-84
2021/12/14 04:19:06;;;;;;;;;;;;;;;1.59;91.47;100270.75;5034247;28;19921;-84
2021/12/14 04:21:38;;;;;;;;;;;;;;;1.73;91.61;100278.09;5029371;28;20397;-84
2021/12/14 04:24:04;;;;;;;;;;;;;;;1.65;91.78;100284.78;5027392;28;19967;-87
2021/12/14 04:26:29;;;;;;;;;;;;;;;1.75;91.15;100279.03;5036048;28;19975;-87
2021/12/14 04:28:56;;;;;;;;;;;;;;;1.92;90.64;100274.34;5040710;28;19928;-89
2021/12/14 04:31:22;;;;;;;;;;;;;;;2.00;90.03;100279.75;5040621;28;19923;-84
2021/12/14 04:33:48;;;;;;;;;;;;;;;1.80;90.89;100274.84;5026952;28;19917;-86
2021/12/14 04:36:16;;;;;;;;;;;;;;;1.73;91.47;100275.47;5029340;28;19925;-87
2021/12/14 04:52:35;;;;;;;;;;;;;;;1.75;92.12;100287.72;5026966;28;19946;-86
2021/12/14 04:55:05;;;;;;;;;;;;;;;1.82;92.26;100285.28;5026900;28;19924;-85
2021/12/14 04:57:38;;;;;;;;;;;;;;;1.87;91.12;100286.31;5026900;28;19967;-83
2021/12/14 05:00:33;;;;;;;;;;;;;;;1.90;90.73;100292.50;5026897;28;20406;-83
2021/12/14 05:02:59;;;;;;;;;;;;;;;1.81;91.08;100291.31;5035496;28;19942;-83
2021/12/14 05:05:28;;;;;;;;;;;;;;;2.00;90.63;100288.44;5029805;28;19927;-83
2021/12/14 05:10:59;;;;;;;;;;;;;;;1.74;91.19;100298.06;5041350;28;19976;-84
2021/12/14 05:13:33;;;;;;;;;;;;;;;1.84;91.23;100305.31;5030248;28;19928;-88
2021/12/14 05:15:58;;;;;;;;;;;;;;;1.78;91.36;100300.81;5030308;28;20292;-85
2021/12/14 05:18:24;;;;;;;;;;;;;;;1.77;91.44;100301.63;5030784;28;19913;-85
2021/12/14 05:20:49;;;;;;;;;;;;;;;1.71;91.58;100306.66;5036782;28;19944;-85
2021/12/14 05:23:32;;;;;;;;;;;;;;;1.82;91.26;100309.56;5043887;28;20046;-86
2021/12/14 05:25:57;;;;;;;;;;;;;;;1.80;91.36;100311.25;5029995;28;20433;-85
2021/12/14 05:28:23;;;;;;;;;;;;;;;1.68;90.65;100314.34;5044984;28;19917;-84
2021/12/14 05:30:57;;;;;;;;;;;;;;;1.66;91.74;100320.38;5040361;28;19923;-85
2021/12/14 05:33:24;;;;;;;;;;;;;;;1.78;90.83;100324.22;5029744;28;19970;-85
2021/12/14 05:35:51;;;;;;;;;;;;;;;1.71;90.87;100321.38;5029223;28;19917;-85
2021/12/14 05:38:21;;;;;;;;;;;;;;;1.71;90.67;100324.00;5029043;28;19920;-85
2021/12/14 05:43:17;;;;;;;;;;;;;;;1.63;91.56;100328.94;5049317;28;19920;-85
2021/12/14 05:45:47;;;;;;;;;;;;;;;1.55;92.26;100331.31;5043555;28;19913;-85
2021/12/14 05:48:17;;;;;;;;;;;;;;;1.68;91.47;100332.56;5029571;28;19966;-85
2021/12/14 05:50:45;;;;;;;;;;;;;;;1.67;91.44;100338.63;5032803;28;19917;-87
2021/12/14 05:53:17;;;;;;;;;;;;;;;1.64;92.57;100330.72;5049371;28;19924;-84
2021/12/14 05:55:42;;;;;;;;;;;;;;;1.62;92.20;100329.78;5029831;28;19921;-83
2021/12/14 05:58:12;;;;;;;;;;;;;;;1.84;91.13;100338.25;5028967;28;19920;-88
2021/12/14 06:00:43;;;;;;;;;;;;;;;1.55;91.62;100333.03;5029121;28;20666;-85
2021/12/14 06:03:12;;;;;;;;;;;;;;;1.83;91.47;100341.69;5034378;28;20310;-86
2021/12/14 06:05:38;;;;;;;;;;;;;;;1.86;91.79;100345.28;5029139;28;20071;-85
2021/12/14 06:08:03;;;;;;;;;;;;;;;1.71;92.25;100342.19;5031397;28;20453;-85
2021/12/14 06:10:29;;;;;;;;;;;;;;;1.90;91.39;100338.44;5049592;28;20476;-84
2021/12/14 06:12:55;;;;;;;;;;;;;;;1.77;91.65;100339.78;5032994;28;19917;-84
2021/12/14 06:15:26;;;;;;;;;;;;;;;1.80;91.40;100342.47;5029240;28;20652;-84
2021/12/14 06:17:51;;;;;;;;;;;;;;;1.84;91.61;100344.34;5027494;28;19913;-84
2021/12/14 06:20:19;;;;;;;;;;;;;;;1.79;91.45;100348.50;5029324;28;19924;-84
2021/12/14 06:22:45;;;;;;;;;;;;;;;1.85;90.58;100346.09;5029567;28;20287;-84
2021/12/14 06:25:13;;;;;;;;;;;;;;;1.97;90.94;100348.19;5030333;28;19921;-85
2021/12/14 06:27:39;;;;;;;;;;;;;;;1.72;90.96;100346.56;5034185;28;20062;-84
2021/12/14 06:30:06;;;;;;;;;;;;;;;1.78;90.69;100345.03;5048603;28;20524;-84
2021/12/14 06:32:33;;;;;;;;;;;;;;;1.79;90.49;100341.59;5048818;28;20063;-83
2021/12/14 06:35:05;;;;;;;;;;;;;;;1.75;91.18;100349.28;5030682;28;19917;-84
2021/12/14 06:38:08;;;;;;;;;;;;;;;1.75;91.00;100342.34;5047185;28;19917;-84
2021/12/14 06:40:43;;;;;;;;;;;;;;;1.63;91.96;100348.88;5040142;28;19956;-84
2021/12/14 06:43:10;;;;;;;;;;;;;;;1.80;91.38;100345.09;5036043;28;19952;-85
2021/12/14 06:45:44;;;;;;;;;;;;;;;1.84;91.29;100352.16;5048695;28;19921;-86
2021/12/14 06:48:15;;;;;;;;;;;;;;;1.67;91.82;100348.13;5049265;28;19924;-84
2021/12/14 06:50:46;;;;;;;;;;;;;;;1.71;91.76;100352.59;5031774;28;19953;-85
2021/12/14 06:53:13;;;;;;;;;;;;;;;2.02;91.09;100353.53;5039430;28;19917;-82
2021/12/14 06:55:39;;;;;;;;;;;;;;;1.84;91.06;100352.16;5028546;28;19921;-84
2021/12/14 06:58:09;;;;;;;;;;;;;;;1.82;91.11;100352.94;5042505;28;19939;-83
2021/12/14 07:00:35;;;;;;;;;;;;;;;1.81;91.21;100352.06;5043921;28;20427;-82
2021/12/14 07:03:00;;;;;;;;;;;;;;;1.72;92.36;100360.44;5039185;28;19921;-86
2021/12/14 07:05:27;;;;;;;;;;;;;;;1.77;91.68;100363.19;5027761;28;19923;-83
2021/12/14 07:07:53;;;;;;;;;;;;;;;1.91;91.71;100359.28;5027998;28;19924;-83
2021/12/14 07:10:19;;;;;;;;;;;;;;;1.83;92.01;100363.38;5034801;28;19920;-83
2021/12/14 07:12:44;;;;;;;;;;;;;;;1.66;92.30;100362.84;5034516;28;19968;-83
2021/12/14 07:15:10;;;;;;;;;;;;;;;1.72;92.51;100367.38;5028718;28;20015;-83
2021/12/14 07:17:44;;;;;;;;;;;;;;;1.75;92.19;100368.34;5027327;28;19924;-82
2021/12/14 07:20:18;;;;;;;;;;;;;;;1.87;91.47;100364.34;5026617;28;19920;-81
2021/12/14 07:22:45;;;;;;;;;;;;;;;1.89;90.75;100370.50;5027479;28;19924;-82
2021/12/14 07:25:12;;;;;;;;;;;;;;;1.83;91.75;100372.91;5026947;28;19974;-81
2021/12/14 07:27:38;;;;;;;;;;;;;;;1.81;91.98;100372.88;5026834;28;19917;-82
2021/12/14 07:30:24;;;;;;;;;;;;;;;1.85;91.54;100374.72;5026806;28;20371;-82
2021/12/14 07:33:16;;;;;;;;;;;;;;;1.80;92.46;100376.31;5027997;28;19913;-82
2021/12/14 07:35:52;;;;;;;;;;;;;;;1.82;91.88;100379.81;5041254;28;19987;-81
2021/12/14 07:38:38;;;;;;;;;;;;;;;1.91;91.44;100379.25;5027878;28;20015;-82
2021/12/14 07:41:30;;;;;;;;;;;;;;;1.59;92.69;100379.09;5028168;28;20035;-82
2021/12/14 07:44:01;;;;;;;;;;;;;;;1.71;92.63;100376.88;5026581;28;19939;-82
2021/12/14 07:46:26;;;;;;;;;;;;;;;1.75;92.40;100378.75;5027909;28;20151;-83
2021/12/14 07:48:54;;;;;;;;;;;;;;;1.77;91.70;100378.81;5027735;28;20429;-81
2021/12/14 07:51:20;;;;;;;;;;;;;;;1.86;91.66;100386.91;5027823;28;19916;-81
2021/12/14 07:53:53;;;;;;;;;;;;;;;1.94;92.07;100388.00;5027588;28;20023;-81
2021/12/14 07:56:25;;;;;;;;;;;;;;;1.78;91.30;100393.59;5027728;28;20382;-83
2021/12/14 07:58:50;;;;;;;;;;;;;;;1.75;91.83;100388.28;5027693;28;19913;-81
2021/12/14 08:01:15;;;;;;;;;;;;;;;1.88;92.14;100397.34;5028161;28;19909;-82
2021/12/14 08:03:41;;;;;;;;;;;;;;;2.02;91.44;100395.19;5026847;28;20303;-82
2021/12/14 08:06:09;;;;;;;;;;;;;;;1.82;91.68;100398.03;5027679;28;19913;-81
2021/12/14 08:08:53;;;;;;;;;;;;;;;1.76;92.35;100403.94;5027155;28;19924;-80
2021/12/14 08:13:54;;;;;;;;;;;;;;;1.93;92.41;100408.78;5026938;28;19917;-81
2021/12/14 08:16:20;;;;;;;;;;;;;;;1.97;92.04;100411.53;5027016;28;19924;-81
2021/12/14 08:18:46;;;;;;;;;;;;;;;1.76;92.83;100405.66;5026728;28;20379;-81
2021/12/14 08:21:17;;;;;;;;;;;;;;;1.65;93.53;100417.44;5027528;28;19920;-82
2021/12/14 08:23:54;;;;;;;;;;;;;;;1.77;93.81;100408.28;5026074;28;19940;-82
2021/12/14 08:26:22;;;;;;;;;;;;;;;2.02;93.36;100409.06;5027242;28;20429;-81
2021/12/14 08:28:51;;;;;;;;;;;;;;;1.92;93.00;100413.13;5027891;28;19917;-80
2021/12/14 08:31:18;;;;;;;;;;;;;;;2.12;92.48;100410.25;5026928;28;19920;-80
2021/12/14 08:33:43;;;;;;;;;;;;;;;2.28;91.68;100409.88;5027177;28;19917;-79
2021/12/14 08:36:11;;;;;;;;;;;;;;;2.02;92.31;100398.66;5027358;28;19944;-80
2021/12/14 08:38:36;;;;;;;;;;;;;;;2.04;92.71;100403.91;5027106;28;19921;-81
2021/12/14 08:41:14;;;;;;;;;;;;;;;2.23;91.89;100407.97;5030367;28;19939;-81
2021/12/14 08:43:47;;;;;;;;;;;;;;;2.20;91.83;100408.75;5031124;28;20041;-80
2021/12/14 08:46:15;;;;;;;;;;;;;;;2.18;91.63;100412.13;5031405;28;19924;-80
2021/12/14 08:48:46;;;;;;;;;;;;;;;2.14;92.21;100408.56;5031345;28;19916;-81
2021/12/14 08:51:20;;;;;;;;;;;;;;;2.18;91.95;100404.34;5031099;28;19913;-81
2021/12/14 08:53:56;;;;;;;;;;;;;;;2.39;92.13;100411.91;5031030;28;19924;-81
2021/12/14 08:56:23;;;;;;;;;;;;;;;2.30;92.14;100407.31;5031203;28;19917;-81
2021/12/14 08:58:49;;;;;;;;;;;;;;;2.25;91.82;100412.38;5030935;28;19975;-81
2021/12/14 09:01:16;;;;;;;;;;;;;;;2.34;92.07;100401.34;5030343;28;19975;-80
2021/12/14 09:03:45;;;;;;;;;;;;;;;2.17;91.87;100399.97;5030589;28;20315;-80
2021/12/14 09:06:16;;;;;;;;;;;;;;;2.05;92.96;100395.28;5030279;28;19917;-79
2021/12/14 09:08:43;;;;;;;;;;;;;;;2.23;91.85;100394.97;5029647;28;20741;-80
2021/12/14 09:11:10;;;;;;;;;;;;;;;2.19;91.73;100398.31;5030240;28;19967;-80
2021/12/14 09:13:36;;;;;;;;;;;;;;;2.22;91.56;100398.38;5029196;28;19924;-80
2021/12/14 09:16:07;;;;;;;;;;;;;;;2.17;91.44;100386.97;5030760;28;20288;-80
2021/12/14 09:18:35;;;;;;;;;;;;;;;2.11;92.32;100387.66;5030328;28;19967;-80
2021/12/14 09:21:03;;;;;;;;;;;;;;;2.20;91.85;100390.53;5030282;28;19919;-80
2021/12/14 09:23:31;;;;;;;;;;;;;;;2.24;92.07;100387.19;5030136;28;19917;-80
2021/12/14 09:25:56;;;;;;;;;;;;;;;2.26;91.81;100380.31;5030323;28;19909;-80
2021/12/14 09:28:22;;;;;;;;;;;;;;;2.30;91.49;100382.16;5032620;28;19975;-80
2021/12/14 09:30:50;;;;;;;;;;;;;;;1.87;91.87;100377.38;5030209;28;20380;-82
2021/12/14 09:33:17;;;;;;;;;;;;;;;1.93;93.53;100377.56;5028838;28;19913;-80
2021/12/14 09:35:43;;;;;;;;;;;;;;;2.16;92.78;100367.84;5030178;28;19924;-81
2021/12/14 09:38:11;;;;;;;;;;;;;;;2.10;92.28;100363.34;5029703;28;19913;-81
2021/12/14 09:40:42;;;;;;;;;;;;;;;2.26;92.12;100356.88;5031336;28;19924;-81
2021/12/14 09:43:07;;;;;;;;;;;;;;;2.09;92.85;100360.72;5050018;28;19916;-81
2021/12/14 09:45:37;;;;;;;;;;;;;;;2.09;92.67;100356.38;5050014;28;19963;-80
2021/12/14 09:48:04;;;;;;;;;;;;;;;2.13;92.84;100357.34;5050007;28;19923;-81
2021/12/14 09:50:32;;;;;;;;;;;;;;;2.23;91.90;100356.78;5034878;28;19921;-81
2021/12/14 09:52:59;;;;;;;;;;;;;;;2.00;93.01;100350.91;5028775;28;19913;-82
2021/12/14 09:55:27;;;;;;;;;;;;;;;2.22;93.62;100355.00;5028198;28;20785;-80
2021/12/14 09:57:57;;;;;;;;;;;;;;;2.35;93.13;100352.75;5028579;28;19916;-80
2021/12/14 10:00:33;;;;;;;;;;;;;;;2.32;92.40;100344.03;5028917;28;20433;-81
2021/12/14 10:02:59;;;;;;;;;;;;;;;2.22;92.88;100346.31;5028810;28;19921;-82
2021/12/14 10:05:29;;;;;;;;;;;;;;;2.26;92.56;100343.84;5028134;28;19920;-83
2021/12/14 10:07:56;;;;;;;;;;;;;;;2.20;93.33;100341.06;5029506;28;20000;-82
2021/12/14 10:10:22;;;;;;;;;;;;;;;2.14;92.50;100343.50;5029045;28;20280;-81
2021/12/14 10:12:50;;;;;;;;;;;;;;;2.39;93.02;100334.66;5028314;28;19921;-81
2021/12/14 10:15:16;;;;;;;;;;;;;;;2.31;92.17;100337.06;5028587;28;19919;-81
2021/12/14 10:17:42;;;;;;;;;;;;;;;2.55;91.57;100338.59;5028221;28;20387;-81
2021/12/14 10:20:11;;;;;;;;;;;;;;;2.58;90.52;100348.19;5028509;28;19917;-81
2021/12/14 10:22:36;;;;;;;;;;;;;;;2.55;91.26;100349.03;5029316;28;19952;-81
2021/12/14 10:25:07;;;;;;;;;;;;;;;2.28;91.48;100346.50;5029316;28;19956;-79
2021/12/14 10:27:33;;;;;;;;;;;;;;;2.68;91.74;100345.88;5028439;28;19967;-79
2021/12/14 10:30:01;;;;;;;;;;;;;;;2.68;91.18;100343.28;5028790;28;19919;-80
2021/12/14 10:32:29;;;;;;;;;;;;;;;2.63;91.10;100337.06;5028802;28;19913;-80
2021/12/14 10:35:02;;;;;;;;;;;;;;;2.55;91.60;100337.69;5028433;28;19921;-80
2021/12/14 10:37:39;;;;;;;;;;;;;;;2.59;92.09;100344.75;5029155;28;19921;-84
2021/12/14 10:45:18;;;;;;;;;;;;;;;2.59;92.22;100345.63;5028819;28;20026;-80
2021/12/14 10:47:44;;;;;;;;;;;;;;;2.63;90.84;100342.28;5031678;28;19920;-80
2021/12/14 10:50:13;;;;;;;;;;;;;;;2.55;92.01;100338.59;5028235;28;19913;-81
2021/12/14 10:52:42;;;;;;;;;;;;;;;2.66;92.33;100331.94;5027928;28;20298;-81
2021/12/14 10:55:10;;;;;;;;;;;;;;;2.74;91.53;100336.50;5027993;28;19917;-80
2021/12/14 10:57:36;;;;;;;;;;;;;;;2.89;91.43;100329.09;5028171;28;19952;-81
2021/12/14 11:00:06;;;;;;;;;;;;;;;3.00;90.77;100334.59;5028092;28;19960;-81
2021/12/14 11:02:39;;;;;;;;;;;;;;;2.83;90.89;100321.97;5027837;28;19917;-81
2021/12/14 11:05:05;;;;;;;;;;;;;;;2.73;91.28;100322.56;5028231;28;20007;-81
2021/12/14 11:07:40;;;;;;;;;;;;;;;2.62;92.41;100324.88;5027651;28;19964;-81
2021/12/14 11:10:07;;;;;;;;;;;;;;;2.77;91.79;100318.34;5028366;28;19970;-80
2021/12/14 11:12:35;;;;;;;;;;;;;;;2.78;92.03;100318.38;5027313;28;19917;-81
2021/12/14 11:15:06;;;;;;;;;;;;;;;2.90;91.19;100314.31;5026398;28;20311;-81
2021/12/14 11:20:18;;;;;;;;;;;;;;;2.66;92.59;100316.31;5027165;28;20406;-80
2021/12/14 11:22:52;;;;;;;;;;;;;;;2.88;92.47;100313.41;5027747;28;19928;-81
2021/12/14 11:25:20;;;;;;;;;;;;;;;2.92;91.44;100305.72;5027251;28;20300;-81
2021/12/14 11:27:48;;;;;;;;;;;;;;;2.74;91.98;100308.72;5027664;28;19964;-80
2021/12/14 11:30:22;;;;;;;;;;;;;;;2.84;91.53;100308.13;5028852;28;20028;-81
2021/12/14 11:33:00;;;;;;;;;;;;;;;3.04;91.16;100303.41;5039106;28;19947;-82
2021/12/14 11:35:27;;;;;;;;;;;;;;;2.95;91.01;100304.88;5046968;28;19912;-81
2021/12/14 11:37:55;;;;;;;;;;;;;;;2.93;92.07;100310.06;5047316;28;19974;-81
2021/12/14 11:40:23;;;;;;;;;;;;;;;3.02;90.75;100306.81;5045258;28;20302;-81
2021/12/14 11:42:49;;;;;;;;;;;;;;;2.98;90.68;100307.56;5026994;28;20604;-81
2021/12/14 11:45:17;;;;;;;;;;;;;;;2.79;92.11;100314.03;5026910;28;20928;-80
2021/12/14 11:47:49;;;;;;;;;;;;;;;2.70;92.58;100306.84;5027158;28;20390;-80
2021/12/14 11:50:21;;;;;;;;;;;;;;;2.83;92.26;100306.34;5027367;28;19970;-81
2021/12/14 11:52:52;;;;;;;;;;;;;;;2.90;92.30;100307.38;5027010;28;19981;-81
2021/12/14 11:55:32;;;;;;;;;;;;;;;2.96;91.56;100310.13;5027070;28;19925;-81
2021/12/14 11:58:03;;;;;;;;;;;;;;;2.90;92.06;100311.72;5026809;28;20299;-85
2021/12/14 12:00:28;;;;;;;;;;;;;;;3.01;92.23;100311.16;5026170;28;20213;-83
2021/12/14 12:02:53;;;;;;;;;;;;;;;3.13;91.36;100315.78;5026336;28;19920;-81
2021/12/14 12:05:21;;;;;;;;;;;;;;;3.30;90.45;100302.28;5026937;28;19917;-82
2021/12/14 12:10:47;;;;;;;;;;;;;;;3.09;91.33;100310.44;5027064;28;19924;-84
2021/12/14 12:13:14;;;;;;;;;;;;;;;2.98;92.45;100304.97;5026565;28;20031;-82
2021/12/14 12:15:41;;;;;;;;;;;;;;;3.10;91.37;100315.69;5026069;28;20669;-81
2021/12/14 12:18:07;;;;;;;;;;;;;;;3.37;90.26;100314.63;5026419;28;19960;-81
2021/12/14 12:20:34;;;;;;;;;;;;;;;3.33;89.92;100318.88;5026672;28;19959;-84
2021/12/14 12:23:02;;;;;;;;;;;;;;;3.47;89.31;100315.72;5027112;28;20015;-83
2021/12/14 12:25:36;;;;;;;;;;;;;;;3.26;89.73;100306.56;5026951;28;19917;-84
2021/12/14 12:28:03;;;;;;;;;;;;;;;3.21;91.11;100306.44;5027287;28;19982;-82
2021/12/14 12:30:36;;;;;;;;;;;;;;;3.18;90.81;100315.91;5026152;28;19913;-82
2021/12/14 12:33:07;;;;;;;;;;;;;;;3.27;90.90;100308.31;5027201;28;19917;-82
2021/12/14 12:35:44;;;;;;;;;;;;;;;3.07;90.37;100305.19;5027064;28;20004;-81
2021/12/14 12:38:19;;;;;;;;;;;;;;;3.41;90.80;100306.03;5027302;28;19917;-81
2021/12/14 12:40:49;;;;;;;;;;;;;;;3.40;89.95;100310.38;5026375;28;20322;-82
2021/12/14 12:43:20;;;;;;;;;;;;;;;3.19;90.06;100302.03;5026160;28;19917;-80
2021/12/14 12:46:12;;;;;;;;;;;;;;;3.23;90.87;100304.75;5025852;28;19913;-85
2021/12/14 12:48:38;;;;;;;;;;;;;;;3.28;90.20;100306.59;5025144;28;19921;-81
2021/12/14 12:51:04;;;;;;;;;;;;;;;3.13;90.54;100301.88;5025395;28;19948;-81
2021/12/14 12:53:29;;;;;;;;;;;;;;;3.20;90.99;100306.41;5026697;28;20438;-81
2021/12/14 12:56:02;;;;;;;;;;;;;;;3.33;89.69;100307.56;5026153;28;20649;-81
2021/12/14 12:58:28;;;;;;;;;;;;;;;3.64;89.70;100306.56;5025541;28;19917;-81
2021/12/14 13:00:56;;;;;;;;;;;;;;;3.49;89.63;100298.38;5026557;28;19921;-82
2021/12/14 13:03:25;;;;;;;;;;;;;;;3.34;89.25;100305.00;5026117;28;19917;-81
2021/12/14 13:05:55;;;;;;;;;;;;;;;3.17;90.89;100304.59;5025993;28;19913;-82
2021/12/14 13:08:24;;;;;;;;;;;;;;;3.21;91.13;100300.31;5026321;28;20450;-82
2021/12/14 13:10:53;;;;;;;;;;;;;;;3.28;91.07;100293.56;5026257;28;21008;-83
2021/12/14 13:13:26;;;;;;;;;;;;;;;3.26;91.02;100297.84;5025614;28;19921;-82
2021/12/14 13:15:56;;;;;;;;;;;;;;;3.28;90.43;100307.47;5026091;28;19917;-81
2021/12/14 13:18:24;;;;;;;;;;;;;;;3.37;90.69;100296.38;5026608;28;19917;-82
2021/12/14 13:20:52;;;;;;;;;;;;;;;3.37;90.40;100296.38;5026112;28;19920;-82
2021/12/14 13:23:19;;;;;;;;;;;;;;;3.53;90.04;100297.63;5027022;28;19936;-83
2021/12/14 13:25:45;;;;;;;;;;;;;;;3.40;90.28;100293.84;5027137;28;19917;-82
2021/12/14 13:28:12;;;;;;;;;;;;;;;3.50;90.61;100292.31;5030520;28;19917;-82
2021/12/14 13:30:37;;;;;;;;;;;;;;;3.44;90.03;100297.41;5029682;28;19921;-81
2021/12/14 13:33:03;;;;;;;;;;;;;;;3.34;90.71;100286.75;5029458;28;20346;-81
2021/12/14 13:35:32;;;;;;;;;;;;;;;3.25;91.00;100290.88;5028532;28;19978;-81
2021/12/14 13:38:02;;;;;;;;;;;;;;;3.34;91.21;100304.13;5030751;28;19921;-81
2021/12/14 13:40:39;;;;;;;;;;;;;;;3.17;91.59;100299.38;5030077;28;20359;-81